createdAt,value
2019-01-30T00:01:24.806Z,12.35
2019-01-30T00:03:53.763Z,14.35
2019-01-30T00:06:22.570Z,12.82
2019-01-30T00:08:51.325Z,12.43
2019-01-30T00:11:20.099Z,12.95
2019-01-30T00:13:48.952Z,13.10
2019-01-30T00:16:17.763Z,12.45
2019-01-30T00:18:46.761Z,13.95
2019-01-30T00:21:15.557Z,11.30
2019-01-30T00:23:44.333Z,14.23
2019-01-30T00:26:13.162Z,13.53
2019-01-30T00:28:42.702Z,13.28
2019-01-30T00:31:12.485Z,13.40
2019-01-30T00:33:41.407Z,13.48
2019-01-30T00:36:10.282Z,15.40
2019-01-30T00:38:39.162Z,13.35
2019-01-30T00:41:08.026Z,16.05
2019-01-30T00:43:36.806Z,16.65
2019-01-30T00:46:07.697Z,11.35
2019-01-30T00:48:36.480Z,10.80
2019-01-30T00:51:06.478Z,12.28
2019-01-30T00:53:36.058Z,14.87
2019-01-30T00:56:05.247Z,11.08
2019-01-30T00:58:34.217Z,14.93
2019-01-30T01:01:03.180Z,13.83
2019-01-30T01:03:32.232Z,12.58
2019-01-30T01:06:02.236Z,13.55
2019-01-30T01:08:33.246Z,11.70
2019-01-30T01:11:02.338Z,11.75
2019-01-30T01:13:31.189Z,10.30
2019-01-30T01:16:06.034Z,15.23
2019-01-30T01:18:41.046Z,11.33
2019-01-30T01:21:19.826Z,14.00
2019-01-30T01:23:54.134Z,11.57
2019-01-30T01:26:32.115Z,13.13
2019-01-30T01:29:06.759Z,11.93
2019-01-30T01:31:35.851Z,14.43
2019-01-30T01:34:04.722Z,13.68
2019-01-30T01:36:33.762Z,10.85
2019-01-30T01:39:03.221Z,14.28
2019-01-30T01:41:32.381Z,11.88
2019-01-30T01:44:01.394Z,13.80
2019-01-30T01:46:30.198Z,13.95
2019-01-30T01:49:00.471Z,11.28
2019-01-30T01:51:30.189Z,16.45
2019-01-30T01:53:59.262Z,16.90
2019-01-30T01:56:28.026Z,15.45
2019-01-30T01:58:58.415Z,14.23
2019-01-30T02:01:27.418Z,14.25
2019-01-30T02:03:56.353Z,15.58
2019-01-30T02:06:25.374Z,16.62
2019-01-30T02:08:54.330Z,13.38
2019-01-30T02:11:23.150Z,16.57
2019-01-30T02:13:52.054Z,13.30
2019-01-30T02:19:06.668Z,15.18
2019-01-30T02:21:35.516Z,18.15
2019-01-30T02:24:04.418Z,17.57
2019-01-30T02:26:33.339Z,10.98
2019-01-30T02:29:02.522Z,14.78
2019-01-30T02:31:32.523Z,17.77
2019-01-30T02:34:01.441Z,13.38
2019-01-30T02:36:30.242Z,16.42
2019-01-30T02:38:58.971Z,15.15
2019-01-30T02:41:29.227Z,15.90
2019-01-30T02:43:57.971Z,14.47
2019-01-30T02:46:26.830Z,16.20
2019-01-30T02:48:55.792Z,20.20
2019-01-30T02:51:24.626Z,14.58
2019-01-30T02:53:53.606Z,15.38
2019-01-30T02:56:22.422Z,15.50
2019-01-30T02:58:51.342Z,16.30
2019-01-30T03:01:20.137Z,13.48
2019-01-30T03:03:49.168Z,12.58
2019-01-30T03:06:17.987Z,13.53
2019-01-30T03:08:46.982Z,20.25
2019-01-30T03:11:16.023Z,17.10
2019-01-30T03:13:44.937Z,17.07
2019-01-30T03:16:13.841Z,13.93
2019-01-30T03:18:42.719Z,13.85
2019-01-30T03:21:11.565Z,16.32
2019-01-30T03:23:40.494Z,15.95
2019-01-30T03:26:09.402Z,16.32
2019-01-30T03:28:38.453Z,21.42
2019-01-30T03:31:17.683Z,14.05
2019-01-30T03:33:37.846Z,15.70
2019-01-30T03:36:06.617Z,20.60
2019-01-30T03:38:36.611Z,15.03
2019-01-30T03:41:05.405Z,17.85
2019-01-30T03:43:34.178Z,17.77
2019-01-30T03:46:03.124Z,13.60
2019-01-30T03:48:32.028Z,19.62
2019-01-30T03:51:00.828Z,14.40
2019-01-30T03:53:32.162Z,18.25
2019-01-30T03:56:01.127Z,15.93
2019-01-30T03:58:29.926Z,16.37
2019-01-30T04:00:58.816Z,18.92
2019-01-30T04:03:27.936Z,15.50
2019-01-30T04:05:57.793Z,15.53
2019-01-30T04:08:26.669Z,15.53
2019-01-30T04:10:55.592Z,14.43
2019-01-30T04:13:24.520Z,18.12
2019-01-30T04:15:53.287Z,18.27
2019-01-30T04:18:22.109Z,15.80
2019-01-30T04:20:50.932Z,16.60
2019-01-30T04:23:19.759Z,21.52
2019-01-30T04:25:48.613Z,16.60
2019-01-30T04:28:17.577Z,13.78
2019-01-30T04:30:46.422Z,19.23
2019-01-30T04:33:15.662Z,20.45
2019-01-30T04:35:44.600Z,18.12
2019-01-30T04:38:13.402Z,16.90
2019-01-30T04:40:42.414Z,17.20
2019-01-30T04:43:11.262Z,17.85
2019-01-30T04:45:40.267Z,17.98
2019-01-30T04:48:09.486Z,17.75
2019-01-30T04:50:38.303Z,15.05
2019-01-30T04:53:07.281Z,17.10
2019-01-30T04:55:39.473Z,19.02
2019-01-30T04:58:08.325Z,18.87
2019-01-30T05:00:37.326Z,17.15
2019-01-30T05:03:06.295Z,17.50
2019-01-30T05:05:35.182Z,21.02
2019-01-30T05:08:04.051Z,21.05
2019-01-30T05:10:32.893Z,18.25
2019-01-30T05:13:01.793Z,21.12
2019-01-30T05:15:31.475Z,20.77
2019-01-30T05:18:00.366Z,21.15
2019-01-30T05:20:29.237Z,23.55
2019-01-30T05:22:58.238Z,23.80
2019-01-30T05:25:27.135Z,25.02
2019-01-30T05:27:55.997Z,24.75
2019-01-30T05:30:31.990Z,21.40
2019-01-30T05:33:00.850Z,24.02
2019-01-30T05:35:29.682Z,19.37
2019-01-30T05:37:58.634Z,22.20
2019-01-30T05:40:27.563Z,20.12
2019-01-30T05:42:56.362Z,22.98
2019-01-30T05:45:25.323Z,22.13
2019-01-30T05:47:55.779Z,18.90
2019-01-30T05:50:24.658Z,22.15
2019-01-30T05:52:53.490Z,22.98
2019-01-30T05:55:22.658Z,24.45
2019-01-30T05:57:51.510Z,22.27
2019-01-30T06:00:27.605Z,18.98
2019-01-30T06:02:56.587Z,23.05
2019-01-30T06:05:25.674Z,19.50
2019-01-30T06:07:54.855Z,21.23
2019-01-30T06:10:25.144Z,27.42
2019-01-30T06:12:54.385Z,26.37
2019-01-30T06:15:23.558Z,23.20
2019-01-30T06:17:52.487Z,23.67
2019-01-30T06:20:23.687Z,21.40
2019-01-30T06:22:52.798Z,23.00
2019-01-30T06:25:21.778Z,24.67
2019-01-30T06:27:53.504Z,19.50
2019-01-30T06:30:22.365Z,21.85
2019-01-30T06:32:51.202Z,25.80
2019-01-30T06:35:20.026Z,34.10
2019-01-30T06:37:49.129Z,29.07
2019-01-30T06:40:20.762Z,23.05
2019-01-30T06:42:51.047Z,22.67
2019-01-30T06:45:20.018Z,22.77
2019-01-30T06:47:48.935Z,21.62
2019-01-30T06:50:17.874Z,22.77
2019-01-30T06:52:46.582Z,24.02
2019-01-30T06:55:15.326Z,21.23
2019-01-30T06:57:44.139Z,19.57
2019-01-30T07:00:18.757Z,21.65
2019-01-30T07:02:47.525Z,19.55
2019-01-30T07:05:16.270Z,22.20
2019-01-30T07:07:48.146Z,21.05
2019-01-30T07:10:19.086Z,16.85
2019-01-30T07:12:47.814Z,20.17
2019-01-30T07:15:16.559Z,23.65
2019-01-30T07:17:45.373Z,22.13
2019-01-30T07:20:14.169Z,22.02
2019-01-30T07:22:43.049Z,18.98
2019-01-30T07:25:12.952Z,27.98
2019-01-30T07:27:41.684Z,23.62
2019-01-30T07:30:14.971Z,23.50
2019-01-30T07:32:43.678Z,26.60
2019-01-30T07:35:12.411Z,25.72
2019-01-30T07:37:41.138Z,20.17
2019-01-30T07:40:10.319Z,21.07
2019-01-30T07:42:39.022Z,26.00
2019-01-30T07:45:09.313Z,24.45
2019-01-30T07:47:38.066Z,24.23
2019-01-30T07:50:07.400Z,22.95
2019-01-30T07:52:36.216Z,22.05
2019-01-30T07:55:06.074Z,22.10
2019-01-30T07:57:34.878Z,26.73
2019-01-30T08:00:04.570Z,25.12
2019-01-30T08:02:33.365Z,22.37
2019-01-30T08:05:02.090Z,25.65
2019-01-30T08:07:30.821Z,23.62
2019-01-30T08:09:59.582Z,23.27
2019-01-30T08:12:28.293Z,22.30
2019-01-30T08:14:57.013Z,24.63
2019-01-30T08:17:25.838Z,22.17
2019-01-30T08:19:54.614Z,25.57
2019-01-30T08:22:26.146Z,23.55
2019-01-30T08:24:55.197Z,22.58
2019-01-30T08:27:24.002Z,28.40
2019-01-30T08:29:52.815Z,26.77
2019-01-30T08:32:22.357Z,26.02
2019-01-30T08:34:51.311Z,26.23
2019-01-30T08:37:20.043Z,28.77
2019-01-30T08:39:48.790Z,25.32
2019-01-30T08:42:17.662Z,30.65
2019-01-30T08:44:47.299Z,28.57
2019-01-30T08:47:16.214Z,25.57
2019-01-30T08:49:44.917Z,27.45
2019-01-30T08:52:13.655Z,26.12
2019-01-30T08:54:42.356Z,31.60
2019-01-30T08:57:13.206Z,30.62
2019-01-30T08:59:41.928Z,29.27
2019-01-30T09:02:10.627Z,36.80
2019-01-30T09:04:39.410Z,28.92
2019-01-30T09:07:08.128Z,29.05
2019-01-30T09:09:36.819Z,27.30
2019-01-30T09:12:05.602Z,30.50
2019-01-30T09:14:34.330Z,28.57
2019-01-30T09:17:08.072Z,29.35
2019-01-30T09:19:34.440Z,27.70
2019-01-30T09:22:03.201Z,27.55
2019-01-30T09:24:31.958Z,29.02
2019-01-30T09:27:00.660Z,24.85
2019-01-30T09:29:29.374Z,32.33
2019-01-30T09:31:58.074Z,28.27
2019-01-30T09:34:26.949Z,33.65
2019-01-30T09:36:55.721Z,30.62
2019-01-30T09:39:24.415Z,29.32
2019-01-30T09:41:53.130Z,34.85
2019-01-30T09:44:21.887Z,32.65
2019-01-30T09:46:50.681Z,30.17
2019-01-30T09:49:19.481Z,28.80
2019-01-30T09:51:48.300Z,34.80
2019-01-30T09:54:20.060Z,35.43
2019-01-30T09:56:48.877Z,31.45
2019-01-30T09:59:17.606Z,35.63
2019-01-30T10:01:47.550Z,32.88
2019-01-30T10:04:16.270Z,30.30
2019-01-30T10:06:45.071Z,33.05
2019-01-30T10:09:13.789Z,33.38
2019-01-30T10:11:44.351Z,32.20
2019-01-30T10:14:13.081Z,27.82
2019-01-30T10:16:42.802Z,33.73
2019-01-30T10:19:11.501Z,32.00
2019-01-30T10:21:40.277Z,36.98
2019-01-30T10:24:08.978Z,31.97
2019-01-30T10:26:37.682Z,34.30
2019-01-30T10:29:06.410Z,33.70
2019-01-30T10:31:37.410Z,33.10
2019-01-30T10:34:06.131Z,36.28
2019-01-30T10:36:34.861Z,40.65
2019-01-30T10:39:05.183Z,38.08
2019-01-30T10:41:33.901Z,38.20
2019-01-30T10:44:02.716Z,39.70
2019-01-30T10:46:31.554Z,40.63
2019-01-30T10:49:00.276Z,42.15
2019-01-30T10:51:29.013Z,43.78
2019-01-30T10:53:57.830Z,37.48
2019-01-30T10:56:26.548Z,41.80
2019-01-30T10:58:55.340Z,40.92
2019-01-30T11:01:24.093Z,42.98
2019-01-30T11:03:57.394Z,41.45
2019-01-30T11:06:23.702Z,45.05
2019-01-30T11:08:52.628Z,47.48
2019-01-30T11:11:21.332Z,49.38
2019-01-30T11:13:50.050Z,44.45
2019-01-30T11:16:18.826Z,43.60
2019-01-30T11:18:47.586Z,41.00
2019-01-30T11:21:16.369Z,46.58
2019-01-30T11:23:45.973Z,46.70
2019-01-30T11:26:14.764Z,42.48
2019-01-30T11:28:43.478Z,44.23
2019-01-30T11:31:12.275Z,47.35
2019-01-30T11:33:41.072Z,42.05
2019-01-30T11:36:09.796Z,42.30
2019-01-30T11:38:38.559Z,43.58
2019-01-30T11:41:07.333Z,43.75
2019-01-30T11:43:36.050Z,45.25
2019-01-30T11:46:04.845Z,46.92
2019-01-30T11:48:33.595Z,46.70
2019-01-30T11:51:02.334Z,50.45
2019-01-30T11:53:31.054Z,50.17
2019-01-30T11:55:59.791Z,50.92
2019-01-30T11:58:28.617Z,50.08
2019-01-30T12:00:59.574Z,48.30
2019-01-30T12:03:28.342Z,50.80
2019-01-30T12:05:57.218Z,51.37
2019-01-30T12:08:25.972Z,47.43
2019-01-30T12:10:54.707Z,52.73
2019-01-30T12:13:24.290Z,45.92
2019-01-30T12:15:53.129Z,51.33
2019-01-30T12:18:21.894Z,49.03
2019-01-30T12:20:51.957Z,48.55
2019-01-30T12:23:21.211Z,46.45
2019-01-30T12:25:50.236Z,50.12
2019-01-30T12:28:18.974Z,52.48
2019-01-30T12:30:47.694Z,52.45
2019-01-30T12:33:16.457Z,47.75
2019-01-30T12:35:45.194Z,42.60
2019-01-30T12:38:14.030Z,38.42
2019-01-30T12:40:42.759Z,43.60
2019-01-30T12:43:11.518Z,42.15
2019-01-30T12:45:40.262Z,45.45
2019-01-30T12:48:10.782Z,45.20
2019-01-30T12:50:39.789Z,44.23
2019-01-30T12:53:08.602Z,43.60
2019-01-30T12:55:37.318Z,40.67
2019-01-30T12:58:06.046Z,39.20
2019-01-30T13:00:36.930Z,39.78
2019-01-30T13:03:05.739Z,40.45
2019-01-30T13:05:34.487Z,39.13
2019-01-30T13:08:03.197Z,34.40
2019-01-30T13:10:32.954Z,32.78
2019-01-30T13:13:01.754Z,29.85
2019-01-30T13:15:30.474Z,32.05
2019-01-30T13:17:59.262Z,31.30
2019-01-30T13:20:27.976Z,29.52
2019-01-30T13:22:56.776Z,27.73
2019-01-30T13:25:30.561Z,25.52
2019-01-30T13:27:59.523Z,25.97
2019-01-30T13:30:30.943Z,25.12
2019-01-30T13:33:00.299Z,28.87
2019-01-30T13:35:29.165Z,27.75
2019-01-30T13:37:57.922Z,28.20
2019-01-30T13:40:28.926Z,30.88
2019-01-30T13:42:58.323Z,25.32
2019-01-30T13:45:28.620Z,25.77
2019-01-30T13:48:01.084Z,26.17
2019-01-30T13:50:31.171Z,24.75
2019-01-30T13:53:00.801Z,24.30
2019-01-30T13:55:30.055Z,23.52
2019-01-30T13:57:59.018Z,18.82
2019-01-30T14:00:32.861Z,24.43
2019-01-30T14:03:01.711Z,23.50
2019-01-30T14:05:31.031Z,18.87
2019-01-30T14:07:59.825Z,21.37
2019-01-30T14:10:29.477Z,21.12
2019-01-30T14:13:01.186Z,17.73
2019-01-30T14:16:17.586Z,20.55
2019-01-30T14:18:46.540Z,19.70
2019-01-30T14:21:15.352Z,18.40
2019-01-30T14:23:48.777Z,15.70
2019-01-30T14:26:18.558Z,15.23
2019-01-30T14:28:48.139Z,17.23
2019-01-30T14:31:16.879Z,17.42
2019-01-30T14:33:48.887Z,13.68
2019-01-30T14:36:17.766Z,12.73
2019-01-30T14:38:46.683Z,16.45
2019-01-30T14:41:15.424Z,15.58
2019-01-30T14:43:44.222Z,15.80
2019-01-30T14:46:13.033Z,15.60
2019-01-30T14:48:41.927Z,16.87
2019-01-30T14:51:16.536Z,16.52
2019-01-30T14:53:45.414Z,16.97
2019-01-30T14:56:14.244Z,16.65
2019-01-30T14:58:43.042Z,19.55
2019-01-30T15:01:11.864Z,20.00
2019-01-30T15:03:40.705Z,17.62
2019-01-30T15:06:09.495Z,18.30
2019-01-30T15:08:38.330Z,16.40
2019-01-30T15:11:07.098Z,19.62
2019-01-30T15:13:35.928Z,18.70
2019-01-30T15:16:05.089Z,18.87
2019-01-30T15:18:33.934Z,18.57
2019-01-30T15:21:02.732Z,22.02
2019-01-30T15:23:31.654Z,20.05
2019-01-30T15:26:00.419Z,19.57
2019-01-30T15:28:29.186Z,18.32
2019-01-30T15:30:57.992Z,18.90
2019-01-30T15:33:26.758Z,20.15
2019-01-30T15:35:55.630Z,21.35
2019-01-30T15:38:24.429Z,27.00
2019-01-30T15:40:55.303Z,24.67
2019-01-30T15:43:24.078Z,23.90
2019-01-30T15:45:53.776Z,21.05
2019-01-30T15:48:22.554Z,23.10
2019-01-30T15:50:51.270Z,21.65
2019-01-30T15:53:22.035Z,21.73
2019-01-30T15:55:51.042Z,19.17
2019-01-30T15:58:19.762Z,21.23
2019-01-30T16:00:54.334Z,21.15
2019-01-30T16:03:23.110Z,22.85
2019-01-30T16:05:51.902Z,22.95
2019-01-30T16:08:20.933Z,20.70
2019-01-30T16:10:49.723Z,23.83
2019-01-30T16:13:18.448Z,25.82
2019-01-30T16:15:58.931Z,22.65
2019-01-30T16:18:27.686Z,20.80
2019-01-30T16:20:59.629Z,20.88
2019-01-30T16:23:28.442Z,21.23
2019-01-30T16:25:57.217Z,24.37
2019-01-30T16:28:26.079Z,23.10
2019-01-30T16:30:55.143Z,23.70
2019-01-30T16:33:23.882Z,21.95
2019-01-30T16:35:56.201Z,23.12
2019-01-30T16:38:23.146Z,26.15
2019-01-30T16:40:51.938Z,20.32
2019-01-30T16:43:31.621Z,26.17
2019-01-30T16:46:00.328Z,25.02
2019-01-30T16:48:32.889Z,28.70
2019-01-30T16:51:01.725Z,22.42
2019-01-30T16:53:30.455Z,26.70
2019-01-30T16:55:59.289Z,28.62
2019-01-30T16:58:28.122Z,26.30
2019-01-30T17:00:56.862Z,28.95
2019-01-30T17:03:25.606Z,29.77
2019-01-30T17:05:54.359Z,28.02
2019-01-30T17:08:23.097Z,25.40
2019-01-30T17:10:51.830Z,28.70
2019-01-30T17:13:20.686Z,27.67
2019-01-30T17:15:49.537Z,22.75
2019-01-30T17:18:18.337Z,26.82
2019-01-30T17:20:47.173Z,27.22
2019-01-30T17:23:16.067Z,25.25
2019-01-30T17:25:44.830Z,28.80
2019-01-30T17:28:13.638Z,27.15
2019-01-30T17:30:54.878Z,25.25
2019-01-30T17:33:23.633Z,25.48
2019-01-30T17:35:53.883Z,28.42
2019-01-30T17:38:52.805Z,26.60
2019-01-30T17:41:02.979Z,24.92
2019-01-30T17:43:31.719Z,28.95
2019-01-30T17:46:00.461Z,22.17
2019-01-30T17:48:36.806Z,20.30
2019-01-30T17:51:05.660Z,20.02
2019-01-30T17:53:34.464Z,15.45
2019-01-30T17:56:03.463Z,18.37
2019-01-30T17:58:34.362Z,11.78
2019-01-30T18:01:03.257Z,10.88
2019-01-30T18:03:32.169Z,11.38
2019-01-30T18:06:00.914Z,13.93
2019-01-30T18:08:30.687Z,9.70
2019-01-30T18:11:16.270Z,16.48
2019-01-30T18:13:49.833Z,9.68
2019-01-30T18:16:18.686Z,10.53
2019-01-30T18:18:49.109Z,6.85
2019-01-30T18:21:17.954Z,5.40
2019-01-30T18:23:46.674Z,5.47
2019-01-30T18:26:15.395Z,11.40
2019-01-30T18:28:44.126Z,8.70
2019-01-30T18:31:12.872Z,4.85
2019-01-30T18:33:41.651Z,7.35
2019-01-30T18:36:10.432Z,6.95
2019-01-30T18:38:39.329Z,6.85
2019-01-30T18:41:08.188Z,8.93
2019-01-30T18:43:45.457Z,5.28
2019-01-30T18:46:14.457Z,5.58
2019-01-30T18:48:43.185Z,6.75
2019-01-30T18:51:11.904Z,9.25
2019-01-30T18:53:40.627Z,13.80
2019-01-30T18:56:15.183Z,5.65
2019-01-30T18:58:43.962Z,4.67
2019-01-30T19:01:12.734Z,3.20
2019-01-30T19:03:41.480Z,5.80
2019-01-30T19:06:10.654Z,7.05
2019-01-30T19:08:39.438Z,9.65
2019-01-30T19:11:08.226Z,7.35
2019-01-30T19:13:39.560Z,7.83
2019-01-30T19:16:07.422Z,6.78
2019-01-30T19:18:36.154Z,7.80
2019-01-30T19:21:04.975Z,6.95
2019-01-30T19:23:33.896Z,8.03
2019-01-30T19:26:02.836Z,10.40
2019-01-30T19:28:31.623Z,4.50
2019-01-30T19:31:00.473Z,2.10
2019-01-30T19:33:29.278Z,2.50
2019-01-30T19:35:58.135Z,1.85
2019-01-30T19:38:27.010Z,4.35
2019-01-30T19:40:58.345Z,4.08
2019-01-30T19:43:27.271Z,4.90
2019-01-30T19:45:57.006Z,5.37
2019-01-30T19:48:25.966Z,4.22
2019-01-30T19:50:54.750Z,5.53
2019-01-30T19:53:23.491Z,4.75
2019-01-30T19:55:52.220Z,6.15
2019-01-30T19:58:21.001Z,6.12
2019-01-30T20:00:49.862Z,9.83
2019-01-30T20:03:31.334Z,5.60
2019-01-30T20:06:00.318Z,8.20
2019-01-30T20:08:29.151Z,10.88
2019-01-30T20:11:02.568Z,6.92
2019-01-30T20:13:31.321Z,8.38
2019-01-30T20:16:00.412Z,13.70
2019-01-30T20:18:29.487Z,15.58
2019-01-30T20:20:58.359Z,8.33
2019-01-30T20:23:27.345Z,7.47
2019-01-30T20:25:56.589Z,3.60
2019-01-30T20:28:25.470Z,9.63
2019-01-30T20:30:56.490Z,8.25
2019-01-30T20:33:25.323Z,6.72
2019-01-30T20:35:54.234Z,7.17
2019-01-30T20:38:23.346Z,8.38
2019-01-30T20:40:52.194Z,8.43
2019-01-30T20:43:25.557Z,4.65
2019-01-30T20:45:51.799Z,4.08
2019-01-30T20:48:21.782Z,8.33
2019-01-30T20:50:50.583Z,4.55
2019-01-30T20:53:19.566Z,5.15
2019-01-30T20:55:48.492Z,9.50
2019-01-30T20:58:17.790Z,5.97
2019-01-30T21:00:46.812Z,4.80
2019-01-30T21:03:15.915Z,5.55
2019-01-30T21:05:45.159Z,5.40
2019-01-30T21:08:14.091Z,4.30
2019-01-30T21:10:43.005Z,3.02
2019-01-30T21:13:12.301Z,2.15
2019-01-30T21:15:41.145Z,5.65
2019-01-30T21:18:09.982Z,4.40
2019-01-30T21:20:38.888Z,2.95
2019-01-30T21:23:07.750Z,5.22
2019-01-30T21:25:36.920Z,6.75
2019-01-30T21:28:05.732Z,8.78
2019-01-30T21:30:36.262Z,4.10
2019-01-30T21:33:05.167Z,4.85
2019-01-30T21:35:34.129Z,8.28
2019-01-30T21:38:03.174Z,5.92
2019-01-30T21:40:31.976Z,5.25
2019-01-30T21:43:00.745Z,5.55
2019-01-30T21:45:29.540Z,5.97
2019-01-30T21:47:58.327Z,6.35
2019-01-30T21:50:27.303Z,6.85
2019-01-30T21:52:57.102Z,6.40
2019-01-30T21:55:25.934Z,5.28
2019-01-30T21:57:54.812Z,8.15
2019-01-30T22:00:25.563Z,7.80
2019-01-30T22:02:54.398Z,12.40
2019-01-30T22:05:23.237Z,9.73
2019-01-30T22:08:00.723Z,15.25
2019-01-30T22:10:27.371Z,10.08
2019-01-30T22:12:56.238Z,7.05
2019-01-30T22:15:25.004Z,8.68
2019-01-30T22:17:53.956Z,14.60
2019-01-30T22:20:24.116Z,14.80
2019-01-30T22:22:53.030Z,12.95
2019-01-30T22:25:22.066Z,15.72
2019-01-30T22:27:50.889Z,16.42
2019-01-30T22:30:24.768Z,11.38
2019-01-30T22:32:53.525Z,13.10
2019-01-30T22:35:22.350Z,14.47
2019-01-30T22:37:51.199Z,15.43
2019-01-30T22:40:20.038Z,15.43
2019-01-30T22:42:48.882Z,17.40
2019-01-30T22:45:18.371Z,16.05
2019-01-30T22:47:48.142Z,16.60
2019-01-30T22:50:16.937Z,13.10
2019-01-30T22:52:45.698Z,13.55
2019-01-30T22:55:16.270Z,18.27
2019-01-30T22:57:45.033Z,10.40
2019-01-30T23:00:25.872Z,18.12
2019-01-30T23:02:54.706Z,19.10
2019-01-30T23:05:57.058Z,10.03
2019-01-30T23:09:04.646Z,14.10
2019-01-30T23:12:00.549Z,13.00
2019-01-30T23:14:41.091Z,12.53
2019-01-30T23:17:50.454Z,19.70
2019-01-30T23:20:33.371Z,21.57
2019-01-30T23:23:55.479Z,24.05
2019-01-30T23:26:54.783Z,16.25
2019-01-30T23:30:28.053Z,13.40
2019-01-30T23:33:20.665Z,14.85
2019-01-30T23:36:23.397Z,14.30
2019-01-30T23:39:38.646Z,18.73
2019-01-30T23:42:53.530Z,20.95
2019-01-30T23:45:45.326Z,19.92
2019-01-30T23:48:50.126Z,20.75
2019-01-30T23:52:09.482Z,18.77
2019-01-30T23:55:05.470Z,13.80
2019-01-30T23:58:07.589Z,22.58
